Time;durP1;ratioP1;P1;durP2;ratioP2;P2;SDS_P1;SDS_P2;PMS_P1;PMS_P2;Temp;Humidity;BMP_temperature;BMP_pressure;BME280_temperature;BME280_humidity;BME280_pressure;Samples;Min_cycle;Max_cycle;Signal;HPM_P1;HPM_P2
2021/05/01 00:01:23;;;;;;;14.55;4.65;;;;;;;18.18;54.95;99681.38;5052530;28;20035;-71
2021/05/01 00:03:48;;;;;;;6.32;3.95;;;;;;;18.14;55.92;99680.63;5052262;28;20120;-71
2021/05/01 00:06:20;;;;;;;7.97;4.57;;;;;;;18.07;55.80;99677.94;5052465;28;20102;-72
2021/05/01 00:08:46;;;;;;;8.63;4.07;;;;;;;17.88;56.35;99675.81;5052708;28;20033;-71
2021/05/01 00:11:12;;;;;;;8.38;3.70;;;;;;;17.87;56.82;99677.03;5052417;28;20069;-72
2021/05/01 00:13:40;;;;;;;8.80;4.00;;;;;;;17.91;56.91;99674.97;5052401;28;20116;-71
2021/05/01 00:16:08;;;;;;;7.47;4.10;;;;;;;17.79;56.99;99665.09;5052070;28;20020;-71
2021/05/01 00:18:33;;;;;;;9.32;4.18;;;;;;;17.64;57.21;99647.59;5056898;28;20033;-72
2021/05/01 00:21:02;;;;;;;11.50;5.28;;;;;;;17.72;57.67;99679.22;5056942;28;20102;-72
2021/05/01 00:23:28;;;;;;;10.55;4.53;;;;;;;17.73;56.98;99673.19;5055762;28;20131;-72
2021/05/01 00:25:54;;;;;;;7.80;4.18;;;;;;;17.64;56.93;99675.72;5057016;28;20025;-72
2021/05/01 00:28:21;;;;;;;10.38;4.03;;;;;;;17.70;56.85;99667.59;5055948;28;20033;-72
2021/05/01 00:30:46;;;;;;;9.55;4.18;;;;;;;17.69;56.92;99668.84;5056455;28;20025;-70
2021/05/01 00:33:15;;;;;;;8.70;3.88;;;;;;;17.76;56.61;99666.72;5056704;28;20177;-71
2021/05/01 00:35:45;;;;;;;8.52;4.13;;;;;;;17.68;56.68;99670.81;5055860;28;20021;-71
2021/05/01 00:38:11;;;;;;;10.25;3.58;;;;;;;17.65;56.67;99670.91;5055994;28;20087;-71
2021/05/01 00:40:39;;;;;;;8.48;3.78;;;;;;;17.67;56.65;99666.41;5055957;28;20033;-71
2021/05/01 00:43:04;;;;;;;7.65;4.13;;;;;;;17.72;56.35;99665.97;5055669;28;20112;-71
2021/05/01 00:45:30;;;;;;;13.65;3.88;;;;;;;17.75;56.24;99647.47;5055700;28;20120;-71
2021/05/01 00:47:56;;;;;;;6.80;4.00;;;;;;;17.84;56.22;99649.72;5055634;28;20037;-71
2021/05/01 00:50:24;;;;;;;6.85;3.92;;;;;;;17.69;56.33;99641.50;5056153;28;20029;-71
2021/05/01 00:52:52;;;;;;;11.32;3.55;;;;;;;17.69;55.82;99655.56;5056818;28;20028;-71
2021/05/01 00:55:18;;;;;;;15.32;3.90;;;;;;;17.71;56.05;99650.28;5055506;28;20035;-71
2021/05/01 00:57:47;;;;;;;6.00;3.53;;;;;;;17.63;56.61;99646.00;5057536;28;20028;-71
2021/05/01 01:00:33;;;;;;;9.18;4.35;;;;;;;17.60;56.57;99652.47;5038948;28;20100;-71
2021/05/01 01:03:02;;;;;;;8.70;4.35;;;;;;;17.59;56.17;99648.06;5055378;28;20056;-71
2021/05/01 01:05:30;;;;;;;9.32;4.00;;;;;;;17.63;56.21;99660.06;5055528;28;20126;-71
2021/05/01 01:07:55;;;;;;;8.90;4.28;;;;;;;17.57;55.94;99660.94;5055239;28;20037;-71
2021/05/01 01:10:21;;;;;;;10.65;4.43;;;;;;;17.49;56.17;99657.44;5055218;28;20029;-71
2021/05/01 01:12:49;;;;;;;7.90;3.35;;;;;;;17.29;55.82;99638.41;5055155;28;20122;-71
2021/05/01 01:15:25;;;;;;;14.68;5.00;;;;;;;17.50;55.50;99661.84;5056115;28;20500;-71
2021/05/01 01:17:56;;;;;;;7.03;3.05;;;;;;;17.36;55.65;99670.47;5055514;28;20395;-71
2021/05/01 01:20:22;;;;;;;6.05;3.30;;;;;;;17.42;55.52;99660.38;5054832;28;20048;-71
2021/05/01 01:22:51;;;;;;;10.35;3.22;;;;;;;17.47;55.35;99671.13;5054441;28;20037;-71
2021/05/01 01:25:23;;;;;;;6.28;3.30;;;;;;;17.35;55.92;99669.66;5056529;28;20032;-71
2021/05/01 01:27:49;;;;;;;5.53;3.38;;;;;;;17.35;55.43;99658.41;5054839;28;20025;-71
2021/05/01 01:30:17;;;;;;;6.03;3.22;;;;;;;17.31;55.47;99659.69;5054771;28;20021;-71
2021/05/01 01:32:44;;;;;;;5.18;2.70;;;;;;;17.24;55.83;99655.75;5055279;28;20140;-71
2021/05/01 01:35:13;;;;;;;5.78;3.85;;;;;;;17.27;55.58;99646.47;5054725;28;20120;-71
2021/05/01 01:37:43;;;;;;;7.68;2.90;;;;;;;17.32;55.83;99655.69;5055378;28;20044;-71
2021/05/01 01:40:10;;;;;;;8.15;3.75;;;;;;;17.26;56.38;99656.16;5054574;28;20472;-71
2021/05/01 01:42:42;;;;;;;7.22;3.42;;;;;;;17.24;55.74;99652.16;5054531;28;20033;-71
2021/05/01 01:45:10;;;;;;;8.48;2.92;;;;;;;17.31;55.65;99662.50;5054541;28;20024;-71
2021/05/01 01:47:38;;;;;;;11.73;3.08;;;;;;;17.37;55.63;99664.44;5054490;28;20031;-71
2021/05/01 01:50:12;;;;;;;6.50;3.00;;;;;;;17.42;55.66;99651.94;5054757;28;20021;-71
2021/05/01 01:52:41;;;;;;;5.40;2.78;;;;;;;17.42;55.45;99652.72;5054689;28;20476;-71
2021/05/01 01:55:09;;;;;;;6.28;3.47;;;;;;;17.34;55.80;99639.16;5054646;28;20033;-71
2021/05/01 01:57:35;;;;;;;6.15;2.80;;;;;;;17.37;55.84;99624.28;5054780;28;20032;-71
2021/05/01 02:00:03;;;;;;;7.25;3.30;;;;;;;17.37;56.03;99618.66;5054213;28;20048;-71
2021/05/01 02:02:34;;;;;;;10.15;2.92;;;;;;;17.40;55.86;99623.41;5054778;28;20032;-71
2021/05/01 02:05:03;;;;;;;6.97;2.53;;;;;;;17.36;55.68;99619.84;5054448;28;20028;-71
2021/05/01 02:07:31;;;;;;;5.35;2.85;;;;;;;17.43;55.57;99631.81;5054082;28;20133;-71
2021/05/01 02:09:57;;;;;;;6.78;3.45;;;;;;;17.48;55.62;99622.91;5054109;28;20079;-70
2021/05/01 02:12:22;;;;;;;4.72;2.78;;;;;;;17.42;55.64;99615.38;5037910;28;20041;-71
2021/05/01 02:14:51;;;;;;;16.02;11.38;;;;;;;17.42;55.81;99592.88;5054519;28;20025;-71
2021/05/01 02:17:19;;;;;;;28.40;23.73;;;;;;;17.41;55.74;99600.50;5054233;28;20025;-72
2021/05/01 02:19:47;;;;;;;26.85;23.90;;;;;;;17.50;55.53;99603.59;5053809;28;20476;-71
2021/05/01 02:22:13;;;;;;;19.23;14.70;;;;;;;17.55;55.74;99617.16;5054132;28;20127;-71
2021/05/01 02:24:44;;;;;;;11.90;10.45;;;;;;;17.60;55.40;99606.66;5053484;28;20518;-71
2021/05/01 02:27:12;;;;;;;11.10;5.10;;;;;;;17.75;54.68;99616.53;5053765;28;20064;-71
2021/05/01 02:29:40;;;;;;;6.57;4.55;;;;;;;17.75;55.07;99610.91;5053988;28;20044;-71
2021/05/01 02:32:09;;;;;;;7.88;5.43;;;;;;;17.74;55.46;99612.13;5053621;28;20040;-71
2021/05/01 02:34:36;;;;;;;9.95;4.60;;;;;;;17.85;54.51;99601.50;5053876;28;20083;-72
2021/05/01 02:37:02;;;;;;;5.15;3.38;;;;;;;17.74;54.62;99596.03;5053623;28;20118;-71
2021/05/01 02:39:28;;;;;;;6.65;3.10;;;;;;;17.88;52.86;99594.19;5053335;28;20068;-72
2021/05/01 02:41:53;;;;;;;4.75;2.80;;;;;;;17.95;52.83;99599.69;5053073;28;20391;-72
2021/05/01 02:44:19;;;;;;;6.25;2.83;;;;;;;18.01;52.43;99609.28;5053443;28;20111;-72
2021/05/01 02:46:44;;;;;;;8.50;3.15;;;;;;;18.11;52.15;99622.38;5053573;28;20040;-72
2021/05/01 02:49:10;;;;;;;4.82;2.63;;;;;;;18.23;51.91;99621.75;5054623;28;20045;-72
2021/05/01 02:51:38;;;;;;;7.38;3.13;;;;;;;18.28;51.86;99629.72;5053265;28;20020;-72
2021/05/01 02:54:06;;;;;;;9.55;4.18;;;;;;;18.50;51.18;99620.88;5053210;28;20035;-72
2021/05/01 02:56:34;;;;;;;12.32;3.63;;;;;;;18.47;51.18;99621.75;5053076;28;20078;-72
2021/05/01 02:59:00;;;;;;;17.38;7.00;;;;;;;18.55;51.31;99631.66;5054598;28;20025;-71
2021/05/01 03:01:27;;;;;;;9.80;4.13;;;;;;;18.54;51.35;99613.97;5053100;28;20086;-72
2021/05/01 03:03:56;;;;;;;12.90;9.35;;;;;;;18.59;51.45;99610.66;5053289;28;20033;-72
2021/05/01 03:06:24;;;;;;;7.53;2.80;;;;;;;18.91;50.79;99623.34;5053264;28;20021;-71
2021/05/01 03:08:50;;;;;;;6.88;3.83;;;;;;;19.00;50.61;99605.84;5052965;28;20033;-71
2021/05/01 03:11:18;;;;;;;8.82;6.25;;;;;;;18.90;51.00;99606.84;5052878;28;20127;-71
2021/05/01 03:13:46;;;;;;;7.85;4.45;;;;;;;18.89;51.47;99585.53;5052862;28;20036;-71
2021/05/01 03:16:12;;;;;;;15.10;5.45;;;;;;;18.88;51.52;99586.78;5052803;28;20024;-71
2021/05/01 03:18:40;;;;;;;7.88;3.53;;;;;;;18.84;51.83;99584.81;5052966;28;20029;-71
2021/05/01 03:21:06;;;;;;;6.68;2.80;;;;;;;19.03;51.78;99590.91;5053034;28;20426;-72
2021/05/01 03:23:34;;;;;;;7.63;3.92;;;;;;;19.01;51.72;99588.50;5052554;28;20048;-71
2021/05/01 03:26:02;;;;;;;13.07;5.18;;;;;;;18.89;52.01;99588.38;5052924;28;20098;-71
2021/05/01 03:28:27;;;;;;;6.03;3.28;;;;;;;18.81;52.05;99587.72;5052896;28;20048;-72
2021/05/01 03:30:56;;;;;;;9.18;3.90;;;;;;;18.86;52.48;99597.69;5052567;28;20476;-71
2021/05/01 03:33:21;;;;;;;6.22;3.22;;;;;;;18.91;52.29;99603.63;5052576;28;20088;-72
2021/05/01 03:35:47;;;;;;;7.57;3.90;;;;;;;18.88;52.23;99598.84;5053048;28;20033;-71
2021/05/01 03:38:15;;;;;;;13.23;3.80;;;;;;;18.82;52.48;99598.56;5052689;28;20384;-71
2021/05/01 03:40:45;;;;;;;8.13;3.22;;;;;;;18.95;52.56;99609.16;5052484;28;20032;-71
2021/05/01 03:43:13;;;;;;;5.18;2.67;;;;;;;19.01;52.11;99618.72;5052455;28;20028;-71
2021/05/01 03:45:42;;;;;;;9.73;3.47;;;;;;;19.25;51.90;99614.59;5052400;28;20059;-72
2021/05/01 03:48:10;;;;;;;7.00;2.53;;;;;;;19.09;51.75;99614.53;5052376;28;20025;-71
2021/05/01 03:50:35;;;;;;;8.82;2.67;;;;;;;19.18;50.95;99614.75;5052293;28;20021;-72
2021/05/01 03:53:04;;;;;;;8.40;2.42;;;;;;;19.16;50.79;99611.53;5051715;28;20036;-71
2021/05/01 03:55:35;;;;;;;6.85;2.78;;;;;;;19.13;50.92;99609.63;5052849;28;20148;-72
2021/05/01 03:58:06;;;;;;;3.88;2.70;;;;;;;19.20;50.66;99614.31;5052187;28;20107;-72
2021/05/01 04:00:37;;;;;;;3.72;3.00;;;;;;;19.30;50.94;99619.72;5052751;28;20127;-72
2021/05/01 04:03:05;;;;;;;8.57;2.92;;;;;;;19.22;50.71;99621.09;5053460;28;20029;-72
2021/05/01 04:05:33;;;;;;;4.80;3.00;;;;;;;19.35;50.66;99627.66;5052079;28;20040;-72
2021/05/01 04:07:59;;;;;;;11.40;2.67;;;;;;;19.36;50.17;99617.97;5052051;28;20060;-72
2021/05/01 04:10:27;;;;;;;7.03;2.78;;;;;;;19.40;50.23;99617.91;5052145;28;20059;-72
2021/05/01 04:12:52;;;;;;;6.40;2.88;;;;;;;19.40;50.42;99625.56;5052524;28;20037;-71
2021/05/01 04:15:21;;;;;;;7.40;2.70;;;;;;;19.37;50.66;99625.19;5053982;28;20028;-71
2021/05/01 04:17:50;;;;;;;7.97;2.80;;;;;;;19.49;49.72;99642.69;5052074;28;20033;-72
2021/05/01 04:20:21;;;;;;;6.40;2.35;;;;;;;19.50;49.42;99641.47;5051919;28;20479;-72
2021/05/01 04:22:47;;;;;;;7.43;2.70;;;;;;;19.50;49.20;99635.81;5051996;28;20061;-72
2021/05/01 04:25:15;;;;;;;8.98;2.75;;;;;;;19.66;49.04;99646.38;5053574;28;20091;-71
2021/05/01 04:27:44;;;;;;;8.45;3.28;;;;;;;19.74;48.37;99642.94;5052268;28;20368;-72
2021/05/01 04:30:12;;;;;;;8.52;2.83;;;;;;;19.81;48.04;99633.50;5051947;28;20087;-71
2021/05/01 04:32:41;;;;;;;8.55;2.80;;;;;;;19.83;47.88;99648.78;5052126;28;20033;-72
2021/05/01 04:35:09;;;;;;;7.15;3.05;;;;;;;19.95;47.04;99644.47;5053414;28;20067;-71
2021/05/01 04:37:35;;;;;;;9.52;2.55;;;;;;;20.04;47.13;99643.88;5051786;28;20036;-72
2021/05/01 04:40:00;;;;;;;8.20;2.70;;;;;;;20.11;46.89;99654.97;5052256;28;20025;-71
2021/05/01 04:42:31;;;;;;;6.35;2.33;;;;;;;20.19;47.16;99670.53;5052051;28;20036;-72
2021/05/01 04:44:59;;;;;;;6.68;2.80;;;;;;;20.37;45.36;99693.47;5052144;28;20383;-72
2021/05/01 04:47:25;;;;;;;8.38;2.90;;;;;;;20.54;45.98;99682.19;5052721;28;20074;-71
2021/05/01 04:49:50;;;;;;;4.55;2.28;;;;;;;20.83;44.98;99682.25;5052250;28;20140;-72
2021/05/01 04:52:16;;;;;;;13.40;3.92;;;;;;;21.21;43.68;99696.53;5051643;28;20552;-72
2021/05/01 04:54:44;;;;;;;5.57;2.90;;;;;;;21.16;43.89;99689.41;5035580;28;20041;-72
2021/05/01 04:57:10;;;;;;;5.97;2.88;;;;;;;20.89;43.29;99672.78;5051661;28;20109;-72
2021/05/01 04:59:36;;;;;;;9.50;3.30;;;;;;;21.02;43.31;99691.81;5051543;28;20032;-72
2021/05/01 05:02:04;;;;;;;8.43;2.97;;;;;;;20.93;44.02;99698.09;5051359;28;20036;-72
2021/05/01 05:04:32;;;;;;;5.32;2.90;;;;;;;20.91;43.45;99695.72;5055842;28;20021;-72
2021/05/01 05:07:00;;;;;;;12.50;3.50;;;;;;;21.06;43.17;99695.34;5055819;28;20102;-72
2021/05/01 05:09:29;;;;;;;5.15;2.67;;;;;;;20.96;43.69;99691.56;5056463;28;20333;-72
2021/05/01 05:11:57;;;;;;;6.93;3.10;;;;;;;20.91;44.15;99673.09;5054980;28;20047;-72
2021/05/01 05:14:22;;;;;;;12.32;5.10;;;;;;;20.85;44.51;99677.72;5055625;28;20120;-71
2021/05/01 05:16:50;;;;;;;9.68;4.28;;;;;;;20.93;44.72;99681.97;5055299;28;20547;-72
2021/05/01 05:19:21;;;;;;;9.73;4.80;;;;;;;20.93;44.99;99710.25;5054854;28;20028;-71
2021/05/01 05:21:49;;;;;;;8.25;4.95;;;;;;;20.95;44.97;99718.25;5055660;28;20435;-72
2021/05/01 05:24:15;;;;;;;9.77;4.60;;;;;;;21.08;44.84;99726.78;5054413;28;20143;-72
2021/05/01 05:26:43;;;;;;;10.52;4.15;;;;;;;21.04;45.11;99717.59;5054699;28;20024;-72
2021/05/01 05:29:12;;;;;;;11.50;3.47;;;;;;;21.02;44.54;99728.59;5054706;28;20029;-72
2021/05/01 05:31:40;;;;;;;6.45;3.10;;;;;;;21.22;44.45;99736.94;5054701;28;20056;-72
2021/05/01 05:34:06;;;;;;;13.35;3.55;;;;;;;21.28;44.12;99741.59;5056482;28;20040;-72
2021/05/01 05:36:31;;;;;;;6.72;2.97;;;;;;;21.39;43.30;99730.81;5054534;28;20029;-72
2021/05/01 05:39:00;;;;;;;11.50;3.60;;;;;;;21.49;43.21;99734.56;5055072;28;20036;-71
2021/05/01 05:41:31;;;;;;;11.65;4.18;;;;;;;21.85;42.54;99751.31;5054475;28;20025;-71
2021/05/01 05:44:02;;;;;;;9.48;4.00;;;;;;;21.94;41.76;99740.13;5054435;28;20031;-71
2021/05/01 05:46:28;;;;;;;12.70;4.03;;;;;;;22.16;41.46;99737.44;5054403;28;20029;-72
2021/05/01 05:48:55;;;;;;;8.80;3.28;;;;;;;22.61;40.90;99730.69;5054539;28;20036;-72
2021/05/01 05:51:21;;;;;;;8.05;2.88;;;;;;;22.55;40.87;99740.25;5054289;28;20056;-71
2021/05/01 05:53:49;;;;;;;10.27;3.60;;;;;;;22.52;41.28;99752.47;5054665;28;20063;-71
2021/05/01 05:56:18;;;;;;;6.88;2.72;;;;;;;22.58;41.22;99762.00;5055730;28;20028;-72
2021/05/01 05:58:46;;;;;;;8.90;3.38;;;;;;;22.63;41.33;99761.44;5054120;28;20121;-72
2021/05/01 06:01:12;;;;;;;11.02;3.15;;;;;;;22.60;41.22;99754.63;5054974;28;20083;-72
2021/05/01 06:03:39;;;;;;;18.05;9.45;;;;;;;22.54;41.62;99752.84;5054106;28;20029;-71
2021/05/01 06:06:09;;;;;;;16.50;8.63;;;;;;;22.62;41.53;99769.13;5054303;28;20028;-71
2021/05/01 06:08:38;;;;;;;15.70;11.90;;;;;;;22.60;41.90;99777.31;5037689;28;20045;-72
2021/05/01 06:11:04;;;;;;;7.80;4.20;;;;;;;22.61;41.92;99786.63;5037502;28;20025;-72
2021/05/01 06:13:34;;;;;;;14.57;4.20;;;;;;;22.60;43.34;99790.72;5054366;28;20093;-72
2021/05/01 06:16:03;;;;;;;13.55;3.50;;;;;;;22.56;43.63;99793.66;5054016;28;20036;-71
2021/05/01 06:18:41;;;;;;;9.10;3.55;;;;;;;22.32;43.51;99793.22;5055005;28;20112;-71
2021/05/01 06:21:11;;;;;;;6.55;3.13;;;;;;;22.04;44.52;99788.38;5054030;28;20116;-71
2021/05/01 06:23:41;;;;;;;8.93;3.22;;;;;;;22.10;44.91;99800.72;5053850;28;20049;-72
2021/05/01 06:26:07;;;;;;;8.00;3.33;;;;;;;22.25;43.96;99813.25;5054953;28;20025;-70
2021/05/01 06:28:34;;;;;;;10.55;3.58;;;;;;;22.04;44.42;99813.88;5053653;28;20041;-71
2021/05/01 06:31:07;;;;;;;11.23;2.85;;;;;;;22.18;43.84;99824.81;5053632;28;20056;-71
2021/05/01 06:33:37;;;;;;;7.95;3.30;;;;;;;22.06;44.30;99828.38;5053517;28;20040;-71
2021/05/01 06:36:03;;;;;;;8.60;3.00;;;;;;;21.91;45.26;99834.47;5053649;28;20037;-72
2021/05/01 06:38:30;;;;;;;11.68;3.30;;;;;;;21.86;45.55;99837.84;5053801;28;20455;-72
2021/05/01 06:41:00;;;;;;;8.73;3.70;;;;;;;21.75;46.41;99853.56;5053234;28;20025;-72
2021/05/01 06:44:01;;;;;;;8.52;3.78;;;;;;;21.62;46.04;99867.66;5053192;28;20494;-72
2021/05/01 06:46:30;;;;;;;7.15;2.80;;;;;;;21.63;46.49;99874.91;5054098;28;20472;-74
2021/05/01 06:48:58;;;;;;;8.65;2.97;;;;;;;21.52;48.21;99885.72;5054338;28;20028;-72
2021/05/01 06:51:28;;;;;;;6.05;2.80;;;;;;;21.43;48.34;99889.97;5036589;28;20068;-77
2021/05/01 06:53:57;;;;;;;6.15;3.47;;;;;;;21.34;51.78;99880.53;5053010;28;20036;-72
2021/05/01 06:56:23;;;;;;;8.68;3.50;;;;;;;21.32;50.63;99877.34;5052951;28;20124;-71
2021/05/01 06:58:52;;;;;;;11.38;4.47;;;;;;;21.09;53.53;99898.09;5052713;28;20447;-72
2021/05/01 07:01:17;;;;;;;11.50;4.05;;;;;;;21.14;55.44;99897.56;5052862;28;20028;-72
2021/05/01 07:03:47;;;;;;;13.63;4.45;;;;;;;20.97;56.02;99901.63;5053422;28;20466;-72
2021/05/01 07:06:17;;;;;;;9.63;3.90;;;;;;;20.76;57.14;99900.91;5052942;28;20025;-72
2021/05/01 07:08:45;;;;;;;5.53;3.95;;;;;;;20.72;57.15;99920.00;5053419;28;20037;-72
2021/05/01 07:11:12;;;;;;;13.80;3.90;;;;;;;20.74;55.37;99897.72;5052700;28;20025;-72
2021/05/01 07:13:39;;;;;;;12.95;3.45;;;;;;;20.72;56.35;99894.56;5053391;28;20368;-72
2021/05/01 07:16:12;;;;;;;10.63;3.85;;;;;;;20.72;55.24;99886.06;5052820;28;20036;-74
2021/05/01 07:18:38;;;;;;;10.60;4.60;;;;;;;20.66;56.71;99916.84;5053227;28;20032;-74
2021/05/01 07:21:04;;;;;;;7.07;4.25;;;;;;;20.84;59.24;99941.13;5052609;28;20044;-72
2021/05/01 07:23:35;;;;;;;14.18;4.90;;;;;;;20.81;59.69;99962.56;5052413;28;20044;-72
2021/05/01 07:26:06;;;;;;;13.50;5.40;;;;;;;20.87;59.56;99938.19;5052476;28;20029;-73
2021/05/01 07:28:36;;;;;;;14.23;4.30;;;;;;;20.72;56.52;99905.84;5052931;28;20357;-73
2021/05/01 07:31:06;;;;;;;11.90;4.55;;;;;;;20.54;55.56;99925.22;5052767;28;20033;-72
2021/05/01 07:33:46;;;;;;;6.70;3.67;;;;;;;20.64;56.05;99938.34;5053727;28;20029;-72
2021/05/01 07:36:23;;;;;;;14.32;4.28;;;;;;;20.72;57.23;99925.66;5054034;28;20025;-73
2021/05/01 07:38:58;;;;;;;12.95;4.10;;;;;;;20.77;58.00;99927.94;5053343;28;20048;-72
2021/05/01 07:41:28;;;;;;;6.43;2.97;;;;;;;20.75;58.71;99915.47;5053615;28;20110;-71
2021/05/01 07:43:54;;;;;;;13.75;3.53;;;;;;;20.97;58.60;99904.47;5052672;28;20115;-72
2021/05/01 07:46:23;;;;;;;8.05;3.08;;;;;;;20.98;58.13;99920.19;5052744;28;20032;-72
2021/05/01 07:48:50;;;;;;;7.78;3.45;;;;;;;20.92;58.97;99915.06;5052187;28;20060;-72
2021/05/01 07:51:17;;;;;;;11.23;4.03;;;;;;;20.91;60.44;99907.03;5052523;28;20499;-72
2021/05/01 07:53:48;;;;;;;8.45;4.25;;;;;;;20.88;60.67;99894.56;5051003;28;20042;-72
2021/05/01 07:56:14;;;;;;;8.65;3.50;;;;;;;20.60;60.47;99875.44;5052173;28;20029;-73
2021/05/01 07:58:41;;;;;;;9.00;4.05;;;;;;;20.63;60.02;99883.03;5051457;28;20055;-72
2021/05/01 08:01:07;;;;;;;13.15;3.45;;;;;;;20.79;59.50;99908.50;5052591;28;20099;-73
2021/05/01 08:03:33;;;;;;;9.60;3.50;;;;;;;21.35;59.58;99904.75;5052258;28;20029;-72
2021/05/01 08:06:01;;;;;;;10.23;3.55;;;;;;;21.35;58.01;99894.22;5052176;28;20024;-73
2021/05/01 08:08:29;;;;;;;8.23;3.10;;;;;;;21.06;60.06;99887.69;5051950;28;20093;-73
2021/05/01 08:10:59;;;;;;;6.88;3.28;;;;;;;20.79;60.43;99868.94;5053011;28;20033;-71
2021/05/01 08:13:30;;;;;;;8.52;3.50;;;;;;;20.74;60.63;99863.81;5053839;28;20029;-71
2021/05/01 08:15:58;;;;;;;10.88;4.10;;;;;;;20.64;61.95;99862.81;5051985;28;20040;-72
2021/05/01 08:18:24;;;;;;;7.90;4.00;;;;;;;20.70;61.61;99848.94;5052136;28;20094;-72
2021/05/01 08:20:50;;;;;;;14.23;5.10;;;;;;;20.61;61.92;99848.75;5052168;28;20033;-71
2021/05/01 08:23:16;;;;;;;10.52;3.67;;;;;;;20.52;61.41;99843.72;5052134;28;20052;-71
2021/05/01 08:25:42;;;;;;;11.80;3.63;;;;;;;20.50;59.74;99834.06;5053166;28;20028;-71
2021/05/01 08:28:07;;;;;;;9.43;3.95;;;;;;;20.51;60.24;99835.69;5051785;28;20104;-71
2021/05/01 08:30:36;;;;;;;12.50;3.92;;;;;;;20.47;61.09;99847.06;5051945;28;20037;-71
2021/05/01 08:33:02;;;;;;;10.70;3.60;;;;;;;20.47;60.55;99835.75;5051597;28;20061;-71
2021/05/01 08:35:28;;;;;;;10.00;4.07;;;;;;;20.55;59.97;99833.56;5051780;28;20036;-71
2021/05/01 08:37:53;;;;;;;12.23;3.25;;;;;;;20.50;60.82;99828.44;5052970;28;20033;-71
2021/05/01 08:40:19;;;;;;;11.23;3.15;;;;;;;20.40;61.21;99825.41;5055869;28;20064;-72
2021/05/01 08:42:47;;;;;;;9.27;3.53;;;;;;;20.55;60.46;99820.22;5055652;28;20486;-72
2021/05/01 08:45:15;;;;;;;12.90;3.90;;;;;;;20.51;59.78;99824.38;5055790;28;20029;-71
2021/05/01 08:47:43;;;;;;;11.10;3.53;;;;;;;20.64;60.63;99831.72;5055506;28;20033;-71
2021/05/01 08:50:31;;;;;;;8.52;3.40;;;;;;;20.73;60.27;99819.03;5057035;28;20029;-71
2021/05/01 08:53:02;;;;;;;13.77;4.72;;;;;;;20.98;59.52;99826.84;5055373;28;20036;-71
2021/05/01 08:55:35;;;;;;;9.52;3.75;;;;;;;21.06;59.20;99822.63;5056874;28;20368;-71
2021/05/01 08:58:03;;;;;;;11.77;4.78;;;;;;;21.25;57.91;99824.53;5055623;28;20036;-71
2021/05/01 09:00:29;;;;;;;10.20;3.70;;;;;;;21.36;58.05;99827.94;5056567;28;20028;-71
2021/05/01 09:02:56;;;;;;;8.68;3.88;;;;;;;21.69;57.92;99831.47;5055845;28;20033;-71
2021/05/01 09:05:25;;;;;;;9.13;4.35;;;;;;;21.82;58.94;99839.97;5055405;28;20021;-71
2021/05/01 09:07:51;;;;;;;9.95;4.63;;;;;;;21.97;58.62;99844.00;5056668;28;20036;-71
2021/05/01 09:10:16;;;;;;;10.30;3.97;;;;;;;21.99;58.12;99854.88;5055339;28;20029;-71
2021/05/01 09:12:46;;;;;;;9.32;3.97;;;;;;;22.02;57.77;99853.19;5054980;28;20039;-71
2021/05/01 09:15:24;;;;;;;11.00;4.25;;;;;;;22.20;58.29;99850.63;5054931;28;20049;-71
2021/05/01 09:18:05;;;;;;;11.30;4.10;;;;;;;22.32;59.08;99855.56;5056432;28;20060;-71
2021/05/01 09:20:32;;;;;;;8.95;4.03;;;;;;;22.34;59.23;99855.88;5055890;28;20025;-71
2021/05/01 09:23:04;;;;;;;10.70;4.43;;;;;;;22.31;58.97;99851.09;5055375;28;20029;-71
2021/05/01 09:25:47;;;;;;;9.40;4.50;;;;;;;22.38;59.24;99839.56;5054562;28;20033;-72
2021/05/01 09:28:17;;;;;;;10.38;4.07;;;;;;;22.50;58.99;99840.81;5054815;28;20181;-72
2021/05/01 09:30:58;;;;;;;11.20;4.15;;;;;;;22.64;59.11;99822.56;5055644;28;20122;-71
2021/05/01 09:33:31;;;;;;;11.65;4.05;;;;;;;22.81;58.53;99838.22;5054696;28;20040;-72
2021/05/01 09:36:18;;;;;;;9.82;3.92;;;;;;;22.88;57.22;99840.84;5054584;28;20036;-71
2021/05/01 09:38:56;;;;;;;10.73;4.10;;;;;;;22.93;57.48;99833.81;5055035;28;20037;-72
2021/05/01 09:41:27;;;;;;;9.55;4.47;;;;;;;22.97;57.80;99806.91;5054370;28;20048;-71
2021/05/01 09:44:08;;;;;;;12.10;3.88;;;;;;;22.94;56.88;99802.13;5055067;28;20476;-71
2021/05/01 09:46:41;;;;;;;8.90;3.55;;;;;;;23.16;56.39;99798.56;5055588;28;20422;-72
2021/05/01 09:49:14;;;;;;;10.35;3.75;;;;;;;23.24;56.82;99791.41;5053987;28;20387;-71
2021/05/01 09:51:44;;;;;;;10.77;3.83;;;;;;;23.44;56.74;99793.94;5054044;28;20033;-71
2021/05/01 09:54:11;;;;;;;10.38;3.58;;;;;;;23.70;57.16;99788.94;5054835;28;20103;-71
2021/05/01 09:56:41;;;;;;;9.98;3.17;;;;;;;23.65;55.59;99781.00;5055171;28;20060;-71
2021/05/01 09:59:08;;;;;;;11.35;3.33;;;;;;;23.49;55.64;99751.56;5053778;28;20032;-71
2021/05/01 10:01:33;;;;;;;9.25;3.05;;;;;;;23.64;55.59;99779.44;5055103;28;20049;-71
2021/05/01 10:04:14;;;;;;;9.00;3.10;;;;;;;23.57;56.30;99788.97;5054657;28;20071;-71
2021/05/01 10:06:46;;;;;;;15.07;4.57;;;;;;;23.36;56.65;99810.41;5054946;28;20025;-71
2021/05/01 10:09:29;;;;;;;9.98;3.70;;;;;;;23.08;56.48;99783.84;5054385;28;20033;-71
2021/05/01 10:12:14;;;;;;;11.05;3.47;;;;;;;23.05;57.22;99812.31;5054976;28;20029;-71
2021/05/01 10:14:49;;;;;;;9.38;3.90;;;;;;;23.03;57.66;99804.28;5054144;28;20360;-71
2021/05/01 10:17:21;;;;;;;7.68;3.35;;;;;;;23.13;56.91;99802.34;5053762;28;20491;-71
2021/05/01 10:19:55;;;;;;;5.13;2.80;;;;;;;23.21;57.00;99800.81;5053487;28;20041;-71
2021/05/01 10:22:39;;;;;;;8.57;3.17;;;;;;;23.40;57.03;99808.25;5037341;28;20037;-71
2021/05/01 10:25:05;;;;;;;8.68;2.92;;;;;;;23.24;57.34;99755.28;5054774;28;20048;-71
2021/05/01 10:28:11;;;;;;;7.30;2.90;;;;;;;23.64;56.61;99763.19;5053471;28;20057;-70
2021/05/01 10:33:17;;;;;;;6.63;3.65;;;;;;;23.64;56.56;99782.28;5054390;28;20387;-70
2021/05/01 10:36:04;;;;;;;7.13;3.45;;;;;;;23.60;56.78;99788.06;5053230;28;20155;-70
2021/05/01 10:38:30;;;;;;;10.98;3.42;;;;;;;23.41;55.87;99794.84;5053583;28;20400;-71
2021/05/01 10:41:07;;;;;;;13.00;2.83;;;;;;;23.52;56.65;99806.59;5055002;28;20035;-71
2021/05/01 10:43:38;;;;;;;15.05;3.88;;;;;;;23.44;56.84;99823.13;5053619;28;20036;-71
2021/05/01 10:46:07;;;;;;;10.68;2.95;;;;;;;23.37;57.01;99831.88;5054665;28;20029;-71
2021/05/01 10:48:45;;;;;;;9.43;3.15;;;;;;;23.23;57.05;99846.56;5054339;28;20111;-71
2021/05/01 10:51:12;;;;;;;6.70;3.28;;;;;;;23.10;57.19;99842.97;5053125;28;20037;-71
2021/05/01 10:53:44;;;;;;;6.15;3.05;;;;;;;23.07;57.77;99846.72;5054386;28;20033;-71
2021/05/01 10:56:11;;;;;;;6.53;2.67;;;;;;;22.99;58.11;99831.97;5054903;28;20025;-70
2021/05/01 10:58:43;;;;;;;15.35;3.10;;;;;;;22.82;58.63;99839.78;5053171;28;20033;-70
2021/05/01 11:01:29;;;;;;;8.20;3.45;;;;;;;22.85;59.08;99844.56;5054132;28;20025;-71
2021/05/01 11:04:02;;;;;;;8.75;3.15;;;;;;;22.91;59.44;99844.81;5052853;28;20035;-71
2021/05/01 11:06:29;;;;;;;7.70;3.47;;;;;;;22.77;59.05;99848.88;5053440;28;20086;-71
2021/05/01 11:09:08;;;;;;;13.25;3.72;;;;;;;22.51;58.39;99835.94;5036416;28;20380;-71
2021/05/01 11:11:37;;;;;;;14.65;3.65;;;;;;;22.68;57.13;99868.59;5052703;28;20036;-70
2021/05/01 11:14:23;;;;;;;16.70;3.72;;;;;;;22.47;58.06;99872.91;5054043;28;20036;-71
2021/05/01 11:16:52;;;;;;;10.30;2.97;;;;;;;22.48;58.21;99902.84;5052676;28;20106;-70
2021/05/01 11:19:21;;;;;;;10.02;3.35;;;;;;;22.40;60.33;99910.75;5052805;28;20032;-71
2021/05/01 11:21:48;;;;;;;10.95;3.15;;;;;;;22.38;60.58;99924.59;5052741;28;20031;-71
2021/05/01 11:24:15;;;;;;;13.05;4.25;;;;;;;22.38;59.50;99938.78;5052372;28;20122;-71
2021/05/01 11:26:46;;;;;;;10.18;3.67;;;;;;;22.01;61.24;99959.25;5053269;28;20029;-71
2021/05/01 11:29:14;;;;;;;11.70;3.40;;;;;;;22.08;61.67;99956.22;5053262;28;20116;-71
2021/05/01 11:31:43;;;;;;;10.82;3.40;;;;;;;21.95;61.96;99959.00;5054392;28;20325;-71
2021/05/01 11:34:11;;;;;;;7.47;3.80;;;;;;;21.72;61.65;99968.50;5053595;28;20076;-71
2021/05/01 11:36:44;;;;;;;9.10;4.20;;;;;;;21.85;61.85;99977.06;5053210;28;20456;-71
2021/05/01 11:39:11;;;;;;;11.32;4.35;;;;;;;21.90;61.04;99979.38;5052743;28;20119;-70
2021/05/01 11:41:38;;;;;;;15.77;3.60;;;;;;;21.87;60.69;99966.09;5054260;28;20025;-71